Time;durP1;ratioP1;P1;durP2;ratioP2;P2;SDS_P1;SDS_P2;PMS_P1;PMS_P2;Temp;Humidity;BMP_temperature;BMP_pressure;BME280_temperature;BME280_humidity;BME280_pressure;Samples;Min_cycle;Max_cycle;Signal;HPM_P1;HPM_P2
2022/12/12 00:03:59;;;;;;;11.98;5.93;;;;;;;;;;10233491;28;20053;-84
2022/12/12 00:09:03;;;;;;;11.70;6.32;;;;;;;;;;10239525;28;20072;-84
2022/12/12 00:14:08;;;;;;;9.82;5.65;;;;;;;;;;10229112;28;20408;-83
2022/12/12 00:19:12;;;;;;;12.10;6.43;;;;;;;;;;10259798;28;20043;-84
2022/12/12 00:24:15;;;;;;;13.25;6.50;;;;;;;;;;10232088;28;20074;-84
2022/12/12 00:29:20;;;;;;;10.98;5.93;;;;;;;;;;10223912;28;20658;-85
2022/12/12 00:34:24;;;;;;;12.25;6.57;;;;;;;;;;10230789;28;20175;-84
2022/12/12 00:39:27;;;;;;;11.95;6.95;;;;;;;;;;10239310;28;20039;-84
2022/12/12 00:44:32;;;;;;;11.07;6.65;;;;;;;;;;10230221;28;20043;-85
2022/12/12 00:49:36;;;;;;;12.05;7.15;;;;;;;;;;10236911;28;20034;-85
2022/12/12 00:54:40;;;;;;;9.55;5.47;;;;;;;;;;10246507;28;20070;-85
2022/12/12 00:59:45;;;;;;;11.73;6.07;;;;;;;;;;10244990;28;20861;-85
2022/12/12 01:04:49;;;;;;;9.10;5.10;;;;;;;;;;10222199;28;20354;-85
2022/12/12 01:09:53;;;;;;;11.77;6.22;;;;;;;;;;10238784;28;20126;-85
2022/12/12 01:14:57;;;;;;;9.13;5.40;;;;;;;;;;10238693;28;20055;-84
2022/12/12 01:20:03;;;;;;;12.05;6.18;;;;;;;;;;10247160;28;20085;-84
2022/12/12 01:25:07;;;;;;;9.77;5.43;;;;;;;;;;10252956;28;20321;-84
2022/12/12 01:30:17;;;;;;;9.02;5.03;;;;;;;;;;10229136;28;20705;-85
2022/12/12 01:35:21;;;;;;;11.95;6.00;;;;;;;;;;10246306;28;20963;-85
2022/12/12 01:40:26;;;;;;;12.52;6.45;;;;;;;;;;10249659;28;20070;-85
2022/12/12 01:46:18;;;;;;;10.13;6.25;;;;;;;;;;10237376;28;20051;-85
2022/12/12 01:51:26;;;;;;;10.38;5.97;;;;;;;;;;10245978;28;20043;-85
2022/12/12 01:56:31;;;;;;;10.40;5.80;;;;;;;;;;10236347;28;20043;-84
2022/12/12 02:01:35;;;;;;;11.30;6.22;;;;;;;;;;10243774;28;20208;-84
2022/12/12 02:06:41;;;;;;;10.55;5.18;;;;;;;;;;10246926;28;20130;-84
2022/12/12 02:11:48;;;;;;;8.10;4.97;;;;;;;;;;10248187;28;20055;-87
2022/12/12 02:17:14;;;;;;;9.68;5.13;;;;;;;;;;10267258;28;20582;-90
2022/12/12 02:22:25;;;;;;;;;;;;;;;;;;10270067;28;20045;-87
2022/12/12 02:27:54;;;;;;;8.43;4.50;;;;;;;;;;10244949;28;19929;-84
2022/12/12 02:33:20;;;;;;;8.48;4.57;;;;;;;;;;10228614;28;20142;-83
2022/12/12 02:38:30;;;;;;;8.32;4.95;;;;;;;;;;10247228;28;20055;-90
2022/12/12 02:51:17;;;;;;;9.93;4.65;;;;;;;;;;10035677;29;20299;-80
2022/12/12 02:57:46;;;;;;;;;;;;;;;;;;;;;
2022/12/12 03:09:22;;;;;;;7.72;4.43;;;;;;;;;;10147182;29;20240;-79
2022/12/12 03:14:48;;;;;;;7.93;4.55;;;;;;;;;;10138143;29;20143;-80
2022/12/12 03:20:00;;;;;;;8.52;4.55;;;;;;;;;;10150452;29;20056;-80
2022/12/12 03:25:12;;;;;;;8.00;4.82;;;;;;;;;;10194511;28;20054;-80
2022/12/12 03:30:17;;;;;;;8.13;4.80;;;;;;;;;;10314611;28;20038;-80
2022/12/12 03:35:34;;;;;;;8.48;4.93;;;;;;;;;;10313270;28;20502;-80
2022/12/12 03:40:48;;;;;;;10.02;5.22;;;;;;;;;;10319636;28;20045;-80
2022/12/12 03:46:02;;;;;;;10.63;5.15;;;;;;;;;;10313469;28;20100;-79
2022/12/12 03:51:11;;;;;;;8.77;4.97;;;;;;;;;;10313130;28;20520;-80
2022/12/12 03:56:27;;;;;;;6.97;4.53;;;;;;;;;;10312928;28;20093;-80
2022/12/12 04:01:47;;;;;;;8.20;4.55;;;;;;;;;;10311088;28;20070;-80
2022/12/12 04:06:58;;;;;;;10.30;5.40;;;;;;;;;;10329570;28;20050;-80
2022/12/12 04:17:48;;;;;;;8.10;4.80;;;;;;;;;;10313715;28;20469;-80
2022/12/12 04:23:18;;;;;;;8.60;4.53;;;;;;;;;;10304744;28;20131;-79
2022/12/12 04:41:14;;;;;;;9.00;4.38;;;;;;;;;;10290358;28;20188;-80
2022/12/12 04:53:08;;;;;;;8.45;4.13;;;;;;;;;;10278061;28;20050;-80
2022/12/12 04:58:32;;;;;;;6.90;4.03;;;;;;;;;;10309815;28;20049;-80
2022/12/12 05:04:10;;;;;;;6.10;3.97;;;;;;;;;;10310140;28;20050;-80
2022/12/12 05:09:51;;;;;;;7.60;4.15;;;;;;;;;;10307157;28;20406;-80
2022/12/12 05:21:40;;;;;;;8.95;4.40;;;;;;;;;;10163558;23;20055;-82
2022/12/12 05:26:43;;;;;;;8.23;4.43;;;;;;;;;;10262477;28;20142;-82
2022/12/12 05:31:47;;;;;;;7.90;4.18;;;;;;;;;;10262341;28;20039;-82
2022/12/12 05:36:53;;;;;;;7.03;3.63;;;;;;;;;;10262555;28;20139;-82
2022/12/12 05:41:56;;;;;;;7.45;4.13;;;;;;;;;;10259950;28;20423;-83
2022/12/12 05:47:00;;;;;;;8.05;4.30;;;;;;;;;;10264780;28;20072;-83
2022/12/12 05:52:13;;;;;;;7.05;4.25;;;;;;;;;;10262140;28;20035;-83
2022/12/12 05:57:24;;;;;;;8.30;4.95;;;;;;;;;;10280393;28;20042;-80
2022/12/12 06:02:27;;;;;;;10.48;4.93;;;;;;;;;;10251617;28;20062;-79
2022/12/12 06:07:32;;;;;;;7.00;4.40;;;;;;;;;;10263284;28;20126;-79
2022/12/12 06:12:35;;;;;;;7.38;4.07;;;;;;;;;;10266938;28;20098;-79
2022/12/12 06:17:38;;;;;;;8.73;4.55;;;;;;;;;;10273092;28;20605;-81
2022/12/12 06:22:43;;;;;;;6.53;4.03;;;;;;;;;;10271592;28;20049;-80
2022/12/12 06:27:48;;;;;;;7.57;3.75;;;;;;;;;;10275835;28;20078;-80
2022/12/12 06:32:52;;;;;;;6.70;3.58;;;;;;;;;;10265068;28;20074;-79
2022/12/12 06:37:57;;;;;;;6.05;3.22;;;;;;;;;;10269742;28;20047;-81
2022/12/12 06:43:00;;;;;;;6.05;3.88;;;;;;;;;;10268533;28;20046;-80
2022/12/12 06:48:04;;;;;;;6.47;3.63;;;;;;;;;;10269770;28;20049;-79
2022/12/12 06:53:08;;;;;;;6.85;3.25;;;;;;;;;;10274367;28;20066;-79
2022/12/12 06:58:12;;;;;;;8.27;3.70;;;;;;;;;;10269426;28;20046;-79
2022/12/12 07:03:16;;;;;;;7.20;3.92;;;;;;;;;;10271989;28;20070;-80
2022/12/12 07:08:21;;;;;;;7.95;4.20;;;;;;;;;;10268371;28;20450;-79
2022/12/12 07:13:24;;;;;;;7.88;4.13;;;;;;;;;;10278007;28;20470;-81
2022/12/12 07:18:28;;;;;;;8.73;4.70;;;;;;;;;;10269923;28;20035;-80
2022/12/12 07:23:33;;;;;;;7.40;3.35;;;;;;;;;;10275209;28;20121;-79
2022/12/12 07:28:37;;;;;;;7.15;4.10;;;;;;;;;;10268925;28;20268;-80
2022/12/12 07:33:41;;;;;;;7.53;4.25;;;;;;;;;;10271196;28;20054;-79
2022/12/12 07:38:47;;;;;;;8.17;3.73;;;;;;;;;;10262328;28;20066;-79
2022/12/12 07:43:51;;;;;;;6.70;3.97;;;;;;;;;;10287292;28;20058;-80
2022/12/12 07:48:55;;;;;;;6.57;3.28;;;;;;;;;;10271663;28;20046;-79
2022/12/12 07:54:00;;;;;;;6.38;3.25;;;;;;;;;;10268985;28;20054;-79
2022/12/12 07:59:04;;;;;;;7.15;3.90;;;;;;;;;;10298775;28;20034;-81
2022/12/12 08:04:07;;;;;;;5.45;3.30;;;;;;;;;;10284930;28;20047;-80
2022/12/12 08:09:12;;;;;;;6.78;4.00;;;;;;;;;;10290436;28;20113;-80
2022/12/12 08:14:15;;;;;;;8.43;4.15;;;;;;;;;;10281521;28;20508;-81
2022/12/12 08:19:19;;;;;;;8.13;4.10;;;;;;;;;;10264367;28;20089;-82
2022/12/12 08:24:24;;;;;;;6.30;3.17;;;;;;;;;;10272596;28;20056;-82
2022/12/12 08:29:27;;;;;;;7.07;4.00;;;;;;;;;;10303471;28;20043;-82
2022/12/12 08:34:30;;;;;;;8.90;4.60;;;;;;;;;;10267322;28;20979;-81
2022/12/12 08:39:35;;;;;;;7.35;4.40;;;;;;;;;;10268703;28;20050;-82
2022/12/12 08:44:39;;;;;;;9.38;5.20;;;;;;;;;;10269560;28;20050;-83
2022/12/12 08:49:42;;;;;;;8.88;5.22;;;;;;;;;;10283075;28;20570;-82
2022/12/12 08:54:47;;;;;;;7.45;4.47;;;;;;;;;;10258721;28;20617;-82
2022/12/12 08:59:50;;;;;;;13.05;7.10;;;;;;;;;;10258843;28;20042;-83
2022/12/12 09:04:53;;;;;;;11.93;5.95;;;;;;;;;;10266935;28;20054;-82
2022/12/12 09:09:58;;;;;;;11.30;6.13;;;;;;;;;;10272788;28;20081;-83
2022/12/12 09:15:01;;;;;;;7.60;4.32;;;;;;;;;;10265043;28;20047;-82
2022/12/12 09:20:06;;;;;;;9.55;5.55;;;;;;;;;;10280571;28;20057;-83
2022/12/12 09:25:12;;;;;;;7.75;4.78;;;;;;;;;;10266816;28;20050;-83
2022/12/12 09:30:15;;;;;;;13.63;5.80;;;;;;;;;;10267162;28;20109;-82
2022/12/12 09:35:19;;;;;;;9.40;4.45;;;;;;;;;;10269048;28;20039;-83
2022/12/12 09:40:30;;;;;;;12.25;4.57;;;;;;;;;;10283523;28;20079;-82
2022/12/12 09:45:37;;;;;;;9.27;4.63;;;;;;;;;;10262127;28;20043;-82
2022/12/12 09:50:45;;;;;;;8.35;4.55;;;;;;;;;;10258489;28;20065;-83
2022/12/12 09:55:55;;;;;;;9.25;4.63;;;;;;;;;;10260801;28;20043;-82
2022/12/12 10:01:11;;;;;;;8.07;3.67;;;;;;;;;;10268394;28;20130;-82
2022/12/12 10:06:15;;;;;;;;;;;;;;;;;;10278144;28;20277;-82
2022/12/12 10:11:53;;;;;;;5.50;3.05;;;;;;;;;;10264740;28;19995;-82
2022/12/12 10:16:58;;;;;;;5.95;3.47;;;;;;;;;;10263925;28;20057;-83
2022/12/12 10:22:07;;;;;;;9.18;4.90;;;;;;;;;;10279898;28;20073;-82
2022/12/12 10:27:14;;;;;;;7.85;4.20;;;;;;;;;;10272138;28;20767;-82
2022/12/12 10:32:30;;;;;;;9.05;5.38;;;;;;;;;;10290027;28;20104;-82
2022/12/12 10:37:43;;;;;;;6.90;4.13;;;;;;;;;;10279123;28;20046;-83
2022/12/12 10:42:54;;;;;;;8.77;5.05;;;;;;;;;;10272505;28;20050;-82
2022/12/12 10:47:58;;;;;;;7.85;4.90;;;;;;;;;;10266817;28;20045;-83
2022/12/12 10:53:02;;;;;;;5.35;3.20;;;;;;;;;;10293941;28;20054;-83
2022/12/12 10:58:07;;;;;;;7.47;4.45;;;;;;;;;;10267409;28;20062;-83
2022/12/12 11:03:26;;;;;;;6.22;3.58;;;;;;;;;;10271575;28;20049;-83
2022/12/12 11:08:32;;;;;;;6.65;3.60;;;;;;;;;;10269895;28;20141;-81
2022/12/12 11:13:45;;;;;;;7.70;3.83;;;;;;;;;;10273194;28;20038;-82
2022/12/12 11:19:05;;;;;;;5.80;3.33;;;;;;;;;;10286919;28;20110;-82
2022/12/12 11:24:13;;;;;;;5.40;3.17;;;;;;;;;;10284789;28;20047;-82
2022/12/12 11:29:31;;;;;;;7.75;3.83;;;;;;;;;;10272448;28;20516;-82
2022/12/12 11:34:38;;;;;;;7.45;3.58;;;;;;;;;;10262390;28;20445;-82
2022/12/12 11:39:44;;;;;;;7.13;3.47;;;;;;;;;;10287747;28;20082;-81
2022/12/12 11:44:56;;;;;;;;;;;;;;;;;;10283037;28;20098;-81
2022/12/12 11:50:01;;;;;;;8.05;3.08;;;;;;;;;;10312796;28;19929;-82
2022/12/12 11:55:14;;;;;;;4.50;2.78;;;;;;;;;;10272807;28;20081;-82
2022/12/12 12:00:21;;;;;;;6.45;3.38;;;;;;;;;;10275002;28;20279;-81
2022/12/12 12:05:43;;;;;;;5.53;2.75;;;;;;;;;;10278777;28;20134;-80
2022/12/12 12:10:58;;;;;;;5.32;3.08;;;;;;;;;;10278248;28;20121;-80
2022/12/12 12:16:11;;;;;;;6.00;3.30;;;;;;;;;;10272278;28;20086;-82
2022/12/12 12:21:43;;;;;;;7.83;3.60;;;;;;;;;;10291908;28;20038;-81
2022/12/12 12:26:55;;;;;;;6.95;3.40;;;;;;;;;;10274583;28;20051;-82
2022/12/12 12:32:09;;;;;;;6.35;3.03;;;;;;;;;;10275093;28;20558;-82
2022/12/12 12:37:27;;;;;;;5.03;2.85;;;;;;;;;;10280280;28;20073;-80
2022/12/12 12:42:46;;;;;;;5.70;3.15;;;;;;;;;;10281410;28;20051;-80
2022/12/12 12:47:57;;;;;;;5.40;3.35;;;;;;;;;;10273826;28;20051;-80
2022/12/12 12:53:05;;;;;;;5.38;3.10;;;;;;;;;;10282169;28;20114;-81
2022/12/12 12:58:17;;;;;;;4.72;3.10;;;;;;;;;;10280611;28;20601;-82
2022/12/12 13:03:27;;;;;;;5.13;3.38;;;;;;;;;;10278239;28;20069;-82
2022/12/12 13:08:39;;;;;;;5.45;3.20;;;;;;;;;;10273325;28;20502;-82
2022/12/12 13:13:46;;;;;;;6.40;3.28;;;;;;;;;;10274375;28;20415;-82
2022/12/12 13:19:00;;;;;;;5.50;3.50;;;;;;;;;;10287291;28;20242;-82
2022/12/12 13:24:09;;;;;;;8.38;3.97;;;;;;;;;;10274143;28;20383;-80
2022/12/12 13:29:37;;;;;;;5.47;3.35;;;;;;;;;;10261438;28;20047;-80
2022/12/12 13:34:46;;;;;;;4.10;2.45;;;;;;;;;;10271620;28;20057;-82
2022/12/12 13:39:59;;;;;;;6.20;3.42;;;;;;;;;;10263244;28;20047;-80
2022/12/12 13:45:36;;;;;;;5.00;3.08;;;;;;;;;;10272003;28;20047;-81
2022/12/12 13:50:41;;;;;;;6.10;3.08;;;;;;;;;;10276189;28;20126;-80
2022/12/12 13:55:44;;;;;;;3.75;2.33;;;;;;;;;;10304249;28;20047;-81
2022/12/12 14:00:48;;;;;;;5.10;3.22;;;;;;;;;;10272027;28;20046;-81
2022/12/12 14:06:07;;;;;;;;;;;;;;;;;;10287675;28;20538;-81
2022/12/12 14:11:30;;;;;;;4.38;2.78;;;;;;;;;;10279128;28;19961;-82
2022/12/12 14:16:34;;;;;;;4.10;2.50;;;;;;;;;;10275239;28;20057;-82
2022/12/12 14:21:48;;;;;;;5.75;3.13;;;;;;;;;;10270143;28;20047;-82
2022/12/12 14:26:52;;;;;;;4.82;2.70;;;;;;;;;;10265970;28;20537;-82
2022/12/12 14:32:09;;;;;;;4.25;2.42;;;;;;;;;;10289866;28;20058;-82
2022/12/12 14:37:40;;;;;;;4.13;2.30;;;;;;;;;;10287556;28;20058;-82
2022/12/12 14:42:52;;;;;;;4.18;2.42;;;;;;;;;;10269941;28;20402;-81
2022/12/12 14:48:18;;;;;;;3.38;2.00;;;;;;;;;;10267207;28;20483;-82
2022/12/12 14:53:24;;;;;;;5.40;2.55;;;;;;;;;;10268340;28;20068;-81
2022/12/12 14:58:30;;;;;;;6.35;2.65;;;;;;;;;;10273740;28;20464;-82
2022/12/12 15:03:38;;;;;;;4.43;2.73;;;;;;;;;;10253931;28;20077;-82
2022/12/12 15:08:44;;;;;;;5.25;2.85;;;;;;;;;;10272863;28;20101;-82
2022/12/12 15:13:55;;;;;;;5.00;2.50;;;;;;;;;;10265687;28;20039;-82
2022/12/12 15:18:59;;;;;;;4.38;2.65;;;;;;;;;;10271051;28;20085;-81
2022/12/12 15:41:01;;;;;;;5.55;3.17;;;;;;;;;;12119030;23;20052;-89
2022/12/12 15:46:12;;;;;;;7.00;3.70;;;;;;;;;;10205894;29;20642;-86
2022/12/12 15:51:16;;;;;;;5.90;3.45;;;;;;;;;;10216466;29;20047;-86
2022/12/12 15:56:27;;;;;;;6.25;3.33;;;;;;;;;;10208619;29;20047;-83
2022/12/12 16:01:31;;;;;;;6.15;3.42;;;;;;;;;;10212053;29;20638;-84
2022/12/12 16:06:38;;;;;;;6.38;4.00;;;;;;;;;;10199990;29;20403;-86
2022/12/12 16:11:45;;;;;;;8.43;4.15;;;;;;;;;;10211616;28;20264;-89
2022/12/12 16:16:52;;;;;;;5.82;3.10;;;;;;;;;;10214725;29;20134;-86
2022/12/12 16:21:56;;;;;;;8.65;4.13;;;;;;;;;;10210742;29;20054;-86
2022/12/12 16:27:01;;;;;;;9.70;4.65;;;;;;;;;;10210365;29;20146;-88
2022/12/12 16:32:07;;;;;;;8.33;5.00;;;;;;;;;;10200394;29;20043;-85
2022/12/12 16:37:16;;;;;;;9.88;5.05;;;;;;;;;;10210551;29;20101;-90
2022/12/12 16:42:22;;;;;;;12.35;6.15;;;;;;;;;;10199515;29;20044;-85
2022/12/12 16:47:26;;;;;;;8.30;4.80;;;;;;;;;;10198107;29;20162;-88
2022/12/12 16:52:30;;;;;;;8.38;4.45;;;;;;;;;;10182942;29;20046;-84
2022/12/12 16:57:37;;;;;;;14.07;5.25;;;;;;;;;;10205029;29;20046;-85
2022/12/12 17:02:41;;;;;;;10.95;5.65;;;;;;;;;;10214379;29;20070;-85
2022/12/12 17:07:44;;;;;;;14.02;6.90;;;;;;;;;;10212629;29;20070;-84
2022/12/12 17:12:50;;;;;;;13.48;6.32;;;;;;;;;;10174192;29;20047;-84
2022/12/12 17:17:54;;;;;;;8.77;5.18;;;;;;;;;;10206402;29;20766;-85
2022/12/12 17:23:01;;;;;;;9.93;4.28;;;;;;;;;;10205120;28;20067;-83
2022/12/12 17:28:24;;;;;;;9.75;5.22;;;;;;;;;;10201985;29;20054;-87
2022/12/12 17:33:29;;;;;;;9.07;4.63;;;;;;;;;;10185736;29;20044;-83
2022/12/12 17:38:32;;;;;;;6.95;4.13;;;;;;;;;;10197892;29;20471;-84
2022/12/12 17:43:38;;;;;;;8.68;4.72;;;;;;;;;;10175521;29;20040;-84
2022/12/12 17:48:43;;;;;;;9.20;4.88;;;;;;;;;;10164396;29;20048;-88
2022/12/12 17:53:46;;;;;;;8.05;4.50;;;;;;;;;;10192161;29;20050;-84
2022/12/12 17:58:53;;;;;;;7.85;4.88;;;;;;;;;;10180589;29;20083;-81
2022/12/12 18:03:57;;;;;;;16.98;7.90;;;;;;;;;;10154139;29;20055;-81
2022/12/12 18:09:02;;;;;;;17.15;7.25;;;;;;;;;;10144684;29;20060;-82
2022/12/12 18:14:08;;;;;;;11.65;7.05;;;;;;;;;;10152256;29;20090;-82
2022/12/12 18:19:11;;;;;;;12.43;5.93;;;;;;;;;;10153942;29;20044;-82
2022/12/12 18:24:16;;;;;;;14.63;5.82;;;;;;;;;;10187911;29;20046;-82
2022/12/12 18:29:21;;;;;;;14.20;6.90;;;;;;;;;;10211159;29;20061;-86
2022/12/12 18:34:25;;;;;;;11.63;5.97;;;;;;;;;;10189827;29;20051;-82
2022/12/12 18:39:28;;;;;;;13.65;6.45;;;;;;;;;;10198217;29;20039;-82
2022/12/12 18:44:35;;;;;;;14.85;7.05;;;;;;;;;;10200934;29;20135;-84
2022/12/12 18:49:39;;;;;;;15.63;8.30;;;;;;;;;;10204847;29;20554;-83
2022/12/12 18:54:43;;;;;;;14.77;8.40;;;;;;;;;;10207071;29;20047;-86
2022/12/12 18:59:48;;;;;;;18.70;9.00;;;;;;;;;;10190746;29;20142;-84
2022/12/12 19:04:52;;;;;;;17.42;9.55;;;;;;;;;;10217423;29;20620;-84
2022/12/12 19:09:56;;;;;;;17.05;8.30;;;;;;;;;;10205219;29;20067;-84
2022/12/12 19:15:00;;;;;;;16.60;8.68;;;;;;;;;;10196879;29;20082;-84
2022/12/12 19:20:23;;;;;;;16.52;8.80;;;;;;;;;;10194730;29;20055;-86
2022/12/12 19:25:32;;;;;;;18.35;9.40;;;;;;;;;;10177183;29;20643;-84
2022/12/12 19:30:41;;;;;;;21.02;10.63;;;;;;;;;;10221588;29;20150;-84
2022/12/12 19:35:45;;;;;;;16.58;9.20;;;;;;;;;;10210005;29;20039;-84
2022/12/12 19:40:49;;;;;;;17.45;8.88;;;;;;;;;;10189494;29;20043;-83
2022/12/12 19:46:03;;;;;;;23.35;10.63;;;;;;;;;;10190561;29;20060;-82
2022/12/12 19:51:08;;;;;;;24.65;11.38;;;;;;;;;;10176236;29;20071;-83
2022/12/12 19:56:15;;;;;;;29.83;12.07;;;;;;;;;;10202719;29;20134;-83
2022/12/12 20:01:22;;;;;;;27.50;12.13;;;;;;;;;;10178670;29;20066;-82
2022/12/12 20:06:26;;;;;;;27.13;11.68;;;;;;;;;;10182854;29;20040;-83
2022/12/12 20:11:30;;;;;;;25.73;10.77;;;;;;;;;;10155812;29;20054;-85
2022/12/12 20:16:35;;;;;;;25.05;12.13;;;;;;;;;;10193588;29;20114;-85
2022/12/12 20:21:42;;;;;;;23.75;11.13;;;;;;;;;;10181842;29;20142;-84
2022/12/12 20:27:03;;;;;;;17.27;8.07;;;;;;;;;;10193671;29;20050;-85
2022/12/12 20:32:08;;;;;;;15.27;7.60;;;;;;;;;;10196020;29;20287;-83
2022/12/12 20:37:11;;;;;;;15.35;6.82;;;;;;;;;;10214352;29;20043;-82
2022/12/12 20:42:17;;;;;;;14.63;8.02;;;;;;;;;;10193263;29;20051;-83
2022/12/12 20:47:22;;;;;;;16.67;7.97;;;;;;;;;;10209743;29;20466;-84
2022/12/12 20:52:26;;;;;;;16.52;9.52;;;;;;;;;;10211701;29;20052;-84
2022/12/12 20:57:30;;;;;;;17.60;9.30;;;;;;;;;;10178673;29;20138;-84
2022/12/12 21:02:38;;;;;;;16.80;9.05;;;;;;;;;;10200507;29;20051;-85
2022/12/12 21:07:42;;;;;;;16.30;8.70;;;;;;;;;;10185641;29;20160;-85
2022/12/12 21:12:45;;;;;;;19.70;9.60;;;;;;;;;;10182061;29;20324;-83
2022/12/12 21:17:50;;;;;;;20.58;10.07;;;;;;;;;;10186455;29;20054;-82
2022/12/12 21:22:53;;;;;;;18.60;9.73;;;;;;;;;;10216960;29;20051;-85
2022/12/12 21:27:57;;;;;;;15.98;8.48;;;;;;;;;;10193923;29;20274;-84
2022/12/12 21:33:02;;;;;;;16.65;9.30;;;;;;;;;;10207325;29;20051;-86
2022/12/12 21:38:05;;;;;;;20.27;10.25;;;;;;;;;;10198226;29;20056;-89
2022/12/12 21:43:09;;;;;;;18.10;9.45;;;;;;;;;;10208947;29;20077;-83
2022/12/12 21:48:13;;;;;;;20.38;9.73;;;;;;;;;;10207164;29;20127;-84
2022/12/12 21:53:34;;;;;;;18.30;8.30;;;;;;;;;;10207131;29;20086;-82
2022/12/12 22:12:14;;;;;;;20.67;9.95;;;;;;;;;;10165265;28;20467;-82
2022/12/12 22:17:19;;;;;;;21.77;9.70;;;;;;;;;;10197836;29;20079;-83
2022/12/12 22:22:23;;;;;;;19.77;10.40;;;;;;;;;;10198925;29;20748;-82
2022/12/12 22:27:26;;;;;;;18.90;10.68;;;;;;;;;;10183237;29;20661;-81
2022/12/12 22:32:31;;;;;;;18.30;8.75;;;;;;;;;;10173222;29;20070;-81
2022/12/12 22:37:34;;;;;;;19.48;9.52;;;;;;;;;;10180517;29;20043;-83
2022/12/12 22:42:38;;;;;;;18.15;9.90;;;;;;;;;;10193761;29;20055;-82
2022/12/12 22:47:42;;;;;;;25.20;11.23;;;;;;;;;;10199390;29;20095;-83
2022/12/12 22:52:46;;;;;;;21.40;10.50;;;;;;;;;;10193432;29;20054;-85
2022/12/12 22:57:49;;;;;;;21.08;10.10;;;;;;;;;;10205235;29;20070;-85
2022/12/12 23:02:55;;;;;;;15.43;8.60;;;;;;;;;;10208892;29;20134;-88
2022/12/12 23:07:58;;;;;;;17.90;8.80;;;;;;;;;;10205529;29;20047;-85
2022/12/12 23:13:02;;;;;;;16.60;8.10;;;;;;;;;;10208926;29;20106;-86
2022/12/12 23:18:07;;;;;;;15.23;7.20;;;;;;;;;;10211183;29;20133;-86
2022/12/12 23:23:13;;;;;;;15.95;7.80;;;;;;;;;;10207358;28;20043;-86
2022/12/12 23:28:17;;;;;;;16.58;8.13;;;;;;;;;;10196715;29;20139;-87
2022/12/12 23:33:22;;;;;;;18.10;8.23;;;;;;;;;;10183897;29;20039;-84
2022/12/12 23:38:25;;;;;;;17.23;8.25;;;;;;;;;;10182469;29;20134;-84
2022/12/12 23:43:31;;;;;;;16.73;8.13;;;;;;;;;;10191643;29;20053;-83
2022/12/12 23:48:36;;;;;;;19.73;9.07;;;;;;;;;;10190187;29;20137;-85
2022/12/12 23:53:39;;;;;;;16.57;8.37;;;;;;;;;;10178820;29;20047;-87
2022/12/12 23:58:43;;;;;;;19.15;9.02;;;;;;;;;;10185271;29;20478;-84
